sensor_id;sensor_type;location;lat;lon;timestamp;P1;durP1;ratioP1;P2;durP2;ratioP2
16828;SDS011;8531;48.078;11.968;2023-06-10T00:00:38;5.22;;;4.50;;
16828;SDS011;8531;48.078;11.968;2023-06-10T00:03:06;4.60;;;4.20;;
16828;SDS011;8531;48.078;11.968;2023-06-10T00:05:32;4.47;;;4.07;;
16828;SDS011;8531;48.078;11.968;2023-06-10T00:07:59;5.15;;;4.35;;
16828;SDS011;8531;48.078;11.968;2023-06-10T00:10:32;4.78;;;4.32;;
16828;SDS011;8531;48.078;11.968;2023-06-10T00:13:01;5.35;;;4.85;;
16828;SDS011;8531;48.078;11.968;2023-06-10T00:15:29;6.55;;;4.57;;
16828;SDS011;8531;48.078;11.968;2023-06-10T00:17:54;4.72;;;4.28;;
16828;SDS011;8531;48.078;11.968;2023-06-10T00:20:20;4.78;;;4.38;;
16828;SDS011;8531;48.078;11.968;2023-06-10T00:22:48;4.47;;;4.18;;
16828;SDS011;8531;48.078;11.968;2023-06-10T00:25:17;5.28;;;4.43;;
16828;SDS011;8531;48.078;11.968;2023-06-10T00:27:43;5.10;;;4.55;;
16828;SDS011;8531;48.078;11.968;2023-06-10T00:30:09;7.43;;;4.85;;
16828;SDS011;8531;48.078;11.968;2023-06-10T00:32:35;6.03;;;4.75;;
16828;SDS011;8531;48.078;11.968;2023-06-10T00:35:05;5.53;;;5.03;;
16828;SDS011;8531;48.078;11.968;2023-06-10T00:37:31;5.20;;;4.72;;
16828;SDS011;8531;48.078;11.968;2023-06-10T00:40:00;5.32;;;4.68;;
16828;SDS011;8531;48.078;11.968;2023-06-10T00:42:25;5.10;;;4.70;;
16828;SDS011;8531;48.078;11.968;2023-06-10T00:44:51;6.25;;;5.30;;
16828;SDS011;8531;48.078;11.968;2023-06-10T00:47:17;6.00;;;5.40;;
16828;SDS011;8531;48.078;11.968;2023-06-10T00:49:43;4.95;;;4.55;;
16828;SDS011;8531;48.078;11.968;2023-06-10T00:52:10;5.15;;;4.55;;
16828;SDS011;8531;48.078;11.968;2023-06-10T00:54:37;4.68;;;4.28;;
16828;SDS011;8531;48.078;11.968;2023-06-10T00:57:04;7.50;;;4.97;;
16828;SDS011;8531;48.078;11.968;2023-06-10T00:59:30;5.00;;;4.50;;
16828;SDS011;8531;48.078;11.968;2023-06-10T01:01:57;5.65;;;5.00;;
16828;SDS011;8531;48.078;11.968;2023-06-10T01:04:23;5.50;;;5.00;;
16828;SDS011;8531;48.078;11.968;2023-06-10T01:12:37;5.78;;;5.25;;
16828;SDS011;8531;48.078;11.968;2023-06-10T01:15:13;4.90;;;4.40;;
16828;SDS011;8531;48.078;11.968;2023-06-10T01:20:28;5.72;;;5.15;;
16828;SDS011;8531;48.078;11.968;2023-06-10T01:22:57;5.97;;;4.40;;
16828;SDS011;8531;48.078;11.968;2023-06-10T01:25:23;5.15;;;4.68;;
16828;SDS011;8531;48.078;11.968;2023-06-10T01:27:54;7.00;;;4.45;;
16828;SDS011;8531;48.078;11.968;2023-06-10T01:30:29;5.13;;;4.72;;
16828;SDS011;8531;48.078;11.968;2023-06-10T01:33:02;5.25;;;4.75;;
16828;SDS011;8531;48.078;11.968;2023-06-10T01:35:32;5.30;;;4.90;;
16828;SDS011;8531;48.078;11.968;2023-06-10T01:38:00;5.43;;;4.90;;
16828;SDS011;8531;48.078;11.968;2023-06-10T01:40:27;5.18;;;4.78;;
16828;SDS011;8531;48.078;11.968;2023-06-10T01:42:54;5.28;;;4.78;;
16828;SDS011;8531;48.078;11.968;2023-06-10T01:45:20;5.50;;;5.00;;
16828;SDS011;8531;48.078;11.968;2023-06-10T01:47:45;5.30;;;4.80;;
16828;SDS011;8531;48.078;11.968;2023-06-10T01:50:11;5.82;;;5.00;;
16828;SDS011;8531;48.078;11.968;2023-06-10T01:52:37;5.70;;;5.20;;
16828;SDS011;8531;48.078;11.968;2023-06-10T01:55:03;5.35;;;4.85;;
16828;SDS011;8531;48.078;11.968;2023-06-10T01:57:29;5.75;;;5.25;;
16828;SDS011;8531;48.078;11.968;2023-06-10T01:59:55;5.45;;;4.95;;
16828;SDS011;8531;48.078;11.968;2023-06-10T02:02:20;7.65;;;5.85;;
16828;SDS011;8531;48.078;11.968;2023-06-10T02:04:47;5.93;;;5.32;;
16828;SDS011;8531;48.078;11.968;2023-06-10T02:07:13;5.50;;;5.00;;
16828;SDS011;8531;48.078;11.968;2023-06-10T02:09:38;5.95;;;5.40;;
16828;SDS011;8531;48.078;11.968;2023-06-10T02:12:04;6.40;;;5.75;;
16828;SDS011;8531;48.078;11.968;2023-06-10T02:14:31;5.82;;;5.32;;
16828;SDS011;8531;48.078;11.968;2023-06-10T02:16:57;6.15;;;5.65;;
16828;SDS011;8531;48.078;11.968;2023-06-10T02:19:23;6.18;;;5.65;;
16828;SDS011;8531;48.078;11.968;2023-06-10T02:21:52;5.85;;;5.35;;
16828;SDS011;8531;48.078;11.968;2023-06-10T02:24:18;5.65;;;5.15;;
16828;SDS011;8531;48.078;11.968;2023-06-10T02:26:44;6.18;;;4.97;;
16828;SDS011;8531;48.078;11.968;2023-06-10T02:29:10;6.05;;;5.43;;
16828;SDS011;8531;48.078;11.968;2023-06-10T02:31:36;6.03;;;5.50;;
16828;SDS011;8531;48.078;11.968;2023-06-10T02:34:02;6.25;;;5.57;;
16828;SDS011;8531;48.078;11.968;2023-06-10T02:36:29;6.85;;;6.00;;
16828;SDS011;8531;48.078;11.968;2023-06-10T02:38:54;5.38;;;4.97;;
16828;SDS011;8531;48.078;11.968;2023-06-10T02:41:20;5.50;;;5.00;;
16828;SDS011;8531;48.078;11.968;2023-06-10T02:43:46;7.05;;;6.32;;
16828;SDS011;8531;48.078;11.968;2023-06-10T02:46:12;6.60;;;6.00;;
16828;SDS011;8531;48.078;11.968;2023-06-10T02:48:45;5.35;;;4.85;;
16828;SDS011;8531;48.078;11.968;2023-06-10T02:51:11;7.13;;;6.43;;
16828;SDS011;8531;48.078;11.968;2023-06-10T02:53:37;6.70;;;6.10;;
16828;SDS011;8531;48.078;11.968;2023-06-10T02:56:03;6.03;;;5.53;;
16828;SDS011;8531;48.078;11.968;2023-06-10T02:58:29;7.25;;;6.55;;
16828;SDS011;8531;48.078;11.968;2023-06-10T03:00:54;7.22;;;6.28;;
16828;SDS011;8531;48.078;11.968;2023-06-10T03:03:20;6.85;;;6.28;;
16828;SDS011;8531;48.078;11.968;2023-06-10T03:05:47;8.13;;;7.32;;
16828;SDS011;8531;48.078;11.968;2023-06-10T03:08:13;7.90;;;7.20;;
16828;SDS011;8531;48.078;11.968;2023-06-10T03:10:39;7.72;;;6.95;;
16828;SDS011;8531;48.078;11.968;2023-06-10T03:13:05;7.25;;;6.65;;
16828;SDS011;8531;48.078;11.968;2023-06-10T03:15:30;8.82;;;7.90;;
16828;SDS011;8531;48.078;11.968;2023-06-10T03:17:58;7.57;;;6.90;;
16828;SDS011;8531;48.078;11.968;2023-06-10T03:20:27;8.48;;;7.68;;
16828;SDS011;8531;48.078;11.968;2023-06-10T03:22:53;8.90;;;8.05;;
16828;SDS011;8531;48.078;11.968;2023-06-10T03:25:19;6.70;;;6.10;;
16828;SDS011;8531;48.078;11.968;2023-06-10T03:27:45;7.20;;;6.60;;
16828;SDS011;8531;48.078;11.968;2023-06-10T03:30:12;7.85;;;7.15;;
16828;SDS011;8531;48.078;11.968;2023-06-10T03:32:38;7.35;;;6.65;;
16828;SDS011;8531;48.078;11.968;2023-06-10T03:35:06;8.77;;;7.88;;
16828;SDS011;8531;48.078;11.968;2023-06-10T03:37:32;12.30;;;8.60;;
16828;SDS011;8531;48.078;11.968;2023-06-10T03:39:57;9.25;;;8.27;;
16828;SDS011;8531;48.078;11.968;2023-06-10T03:42:23;8.55;;;7.70;;
16828;SDS011;8531;48.078;11.968;2023-06-10T03:44:49;8.02;;;7.28;;
16828;SDS011;8531;48.078;11.968;2023-06-10T03:47:14;8.48;;;7.68;;
16828;SDS011;8531;48.078;11.968;2023-06-10T03:49:41;8.00;;;7.22;;
16828;SDS011;8531;48.078;11.968;2023-06-10T03:52:06;8.15;;;7.45;;
16828;SDS011;8531;48.078;11.968;2023-06-10T03:54:32;7.78;;;7.00;;
16828;SDS011;8531;48.078;11.968;2023-06-10T03:56:59;7.47;;;6.80;;
16828;SDS011;8531;48.078;11.968;2023-06-10T03:59:25;9.10;;;8.20;;
16828;SDS011;8531;48.078;11.968;2023-06-10T04:01:51;8.48;;;7.68;;
16828;SDS011;8531;48.078;11.968;2023-06-10T04:04:17;7.75;;;7.03;;
16828;SDS011;8531;48.078;11.968;2023-06-10T04:06:42;9.32;;;8.43;;
16828;SDS011;8531;48.078;11.968;2023-06-10T04:09:09;8.30;;;7.45;;
16828;SDS011;8531;48.078;11.968;2023-06-10T04:11:35;8.57;;;7.78;;
16828;SDS011;8531;48.078;11.968;2023-06-10T04:14:02;9.45;;;8.43;;
16828;SDS011;8531;48.078;11.968;2023-06-10T04:16:28;8.45;;;7.53;;
16828;SDS011;8531;48.078;11.968;2023-06-10T04:18:53;9.52;;;8.73;;
16828;SDS011;8531;48.078;11.968;2023-06-10T04:21:19;8.43;;;7.72;;
16828;SDS011;8531;48.078;11.968;2023-06-10T04:23:45;9.88;;;8.98;;
16828;SDS011;8531;48.078;11.968;2023-06-10T04:26:11;8.60;;;7.80;;
16828;SDS011;8531;48.078;11.968;2023-06-10T04:28:39;9.98;;;8.98;;
16828;SDS011;8531;48.078;11.968;2023-06-10T04:31:05;8.88;;;8.02;;
16828;SDS011;8531;48.078;11.968;2023-06-10T04:33:31;9.65;;;8.75;;
16828;SDS011;8531;48.078;11.968;2023-06-10T04:35:56;9.77;;;8.88;;
16828;SDS011;8531;48.078;11.968;2023-06-10T04:38:22;8.80;;;7.90;;
16828;SDS011;8531;48.078;11.968;2023-06-10T04:40:48;10.00;;;9.10;;
16828;SDS011;8531;48.078;11.968;2023-06-10T04:43:14;9.45;;;8.55;;
16828;SDS011;8531;48.078;11.968;2023-06-10T04:45:39;8.38;;;7.57;;
16828;SDS011;8531;48.078;11.968;2023-06-10T04:48:05;10.85;;;8.95;;
16828;SDS011;8531;48.078;11.968;2023-06-10T04:50:32;10.05;;;9.13;;
16828;SDS011;8531;48.078;11.968;2023-06-10T04:52:58;9.40;;;8.45;;
16828;SDS011;8531;48.078;11.968;2023-06-10T04:55:24;8.85;;;7.95;;
16828;SDS011;8531;48.078;11.968;2023-06-10T04:57:50;9.80;;;8.85;;
16828;SDS011;8531;48.078;11.968;2023-06-10T05:00:16;11.13;;;9.15;;
16828;SDS011;8531;48.078;11.968;2023-06-10T05:02:42;9.15;;;8.25;;
16828;SDS011;8531;48.078;11.968;2023-06-10T05:05:08;9.98;;;8.98;;
16828;SDS011;8531;48.078;11.968;2023-06-10T05:07:33;11.52;;;8.55;;
16828;SDS011;8531;48.078;11.968;2023-06-10T05:09:59;9.55;;;8.60;;
16828;SDS011;8531;48.078;11.968;2023-06-10T05:12:26;12.20;;;9.63;;
16828;SDS011;8531;48.078;11.968;2023-06-10T05:14:52;10.00;;;8.73;;
16828;SDS011;8531;48.078;11.968;2023-06-10T05:17:17;12.00;;;9.32;;
16828;SDS011;8531;48.078;11.968;2023-06-10T05:19:43;10.98;;;9.25;;
16828;SDS011;8531;48.078;11.968;2023-06-10T05:22:09;10.98;;;8.50;;
16828;SDS011;8531;48.078;11.968;2023-06-10T05:24:35;11.68;;;8.73;;
16828;SDS011;8531;48.078;11.968;2023-06-10T05:27:00;9.60;;;8.48;;
16828;SDS011;8531;48.078;11.968;2023-06-10T05:29:27;10.93;;;8.38;;
16828;SDS011;8531;48.078;11.968;2023-06-10T05:31:53;9.38;;;8.48;;
16828;SDS011;8531;48.078;11.968;2023-06-10T05:34:21;9.05;;;7.85;;
16828;SDS011;8531;48.078;11.968;2023-06-10T05:36:47;9.25;;;8.23;;
16828;SDS011;8531;48.078;11.968;2023-06-10T05:39:13;10.23;;;9.23;;
16828;SDS011;8531;48.078;11.968;2023-06-10T05:41:38;11.48;;;8.07;;
16828;SDS011;8531;48.078;11.968;2023-06-10T05:44:04;8.65;;;7.47;;
16828;SDS011;8531;48.078;11.968;2023-06-10T05:46:30;9.00;;;8.20;;
16828;SDS011;8531;48.078;11.968;2023-06-10T05:48:55;8.52;;;7.65;;
16828;SDS011;8531;48.078;11.968;2023-06-10T05:51:21;7.25;;;6.55;;
16828;SDS011;8531;48.078;11.968;2023-06-10T05:53:47;9.48;;;7.50;;
16828;SDS011;8531;48.078;11.968;2023-06-10T05:56:13;7.63;;;6.93;;
16828;SDS011;8531;48.078;11.968;2023-06-10T05:58:39;6.75;;;6.15;;
16828;SDS011;8531;48.078;11.968;2023-06-10T06:01:05;7.85;;;6.95;;
16828;SDS011;8531;48.078;11.968;2023-06-10T06:03:31;7.72;;;6.97;;
16828;SDS011;8531;48.078;11.968;2023-06-10T06:05:56;8.05;;;7.25;;
16828;SDS011;8531;48.078;11.968;2023-06-10T06:08:22;7.68;;;6.97;;
16828;SDS011;8531;48.078;11.968;2023-06-10T06:10:47;8.07;;;7.38;;
16828;SDS011;8531;48.078;11.968;2023-06-10T06:13:13;7.50;;;6.80;;
16828;SDS011;8531;48.078;11.968;2023-06-10T06:15:39;7.63;;;6.93;;
16828;SDS011;8531;48.078;11.968;2023-06-10T06:18:04;6.95;;;6.32;;
16828;SDS011;8531;48.078;11.968;2023-06-10T06:20:30;5.93;;;5.40;;
16828;SDS011;8531;48.078;11.968;2023-06-10T06:22:56;7.55;;;6.40;;
16828;SDS011;8531;48.078;11.968;2023-06-10T06:25:21;8.75;;;6.63;;
16828;SDS011;8531;48.078;11.968;2023-06-10T06:27:48;5.70;;;5.20;;
16828;SDS011;8531;48.078;11.968;2023-06-10T06:30:13;7.28;;;6.13;;
16828;SDS011;8531;48.078;11.968;2023-06-10T06:32:39;6.00;;;5.50;;
16828;SDS011;8531;48.078;11.968;2023-06-10T06:35:05;6.78;;;6.13;;
16828;SDS011;8531;48.078;11.968;2023-06-10T06:37:32;6.30;;;5.68;;
16828;SDS011;8531;48.078;11.968;2023-06-10T06:39:58;7.90;;;5.88;;
16828;SDS011;8531;48.078;11.968;2023-06-10T06:42:24;6.97;;;6.38;;
16828;SDS011;8531;48.078;11.968;2023-06-10T06:44:50;6.53;;;5.93;;
16828;SDS011;8531;48.078;11.968;2023-06-10T06:47:15;6.32;;;5.50;;
16828;SDS011;8531;48.078;11.968;2023-06-10T06:49:48;6.70;;;6.10;;
16828;SDS011;8531;48.078;11.968;2023-06-10T06:52:17;6.40;;;5.80;;
16828;SDS011;8531;48.078;11.968;2023-06-10T06:54:42;7.30;;;6.60;;
16828;SDS011;8531;48.078;11.968;2023-06-10T06:57:08;6.70;;;6.10;;
16828;SDS011;8531;48.078;11.968;2023-06-10T06:59:34;7.68;;;6.97;;
16828;SDS011;8531;48.078;11.968;2023-06-10T07:01:59;6.63;;;6.03;;
16828;SDS011;8531;48.078;11.968;2023-06-10T07:04:25;7.00;;;6.38;;
16828;SDS011;8531;48.078;11.968;2023-06-10T07:06:51;9.05;;;6.40;;
16828;SDS011;8531;48.078;11.968;2023-06-10T07:09:16;6.15;;;5.55;;
16828;SDS011;8531;48.078;11.968;2023-06-10T07:11:43;6.05;;;5.40;;
16828;SDS011;8531;48.078;11.968;2023-06-10T07:14:09;4.90;;;4.50;;
16828;SDS011;8531;48.078;11.968;2023-06-10T07:16:34;7.80;;;6.13;;
16828;SDS011;8531;48.078;11.968;2023-06-10T07:19:00;6.20;;;5.70;;
16828;SDS011;8531;48.078;11.968;2023-06-10T07:21:26;6.88;;;5.95;;
16828;SDS011;8531;48.078;11.968;2023-06-10T07:23:53;5.75;;;5.25;;
16828;SDS011;8531;48.078;11.968;2023-06-10T07:26:19;5.95;;;5.40;;
16828;SDS011;8531;48.078;11.968;2023-06-10T07:28:46;7.05;;;5.63;;
16828;SDS011;8531;48.078;11.968;2023-06-10T07:31:12;5.60;;;4.95;;
16828;SDS011;8531;48.078;11.968;2023-06-10T07:33:38;5.50;;;5.00;;
16828;SDS011;8531;48.078;11.968;2023-06-10T07:36:08;5.55;;;5.05;;
16828;SDS011;8531;48.078;11.968;2023-06-10T07:38:34;4.47;;;4.07;;
16828;SDS011;8531;48.078;11.968;2023-06-10T07:41:00;3.53;;;3.22;;
16828;SDS011;8531;48.078;11.968;2023-06-10T07:43:26;7.05;;;3.92;;
16828;SDS011;8531;48.078;11.968;2023-06-10T07:45:52;4.82;;;4.32;;
16828;SDS011;8531;48.078;11.968;2023-06-10T07:48:18;4.28;;;3.90;;
16828;SDS011;8531;48.078;11.968;2023-06-10T07:50:44;3.50;;;3.20;;
16828;SDS011;8531;48.078;11.968;2023-06-10T07:53:10;4.03;;;3.63;;
16828;SDS011;8531;48.078;11.968;2023-06-10T07:55:36;3.85;;;3.45;;
16828;SDS011;8531;48.078;11.968;2023-06-10T07:58:01;4.47;;;3.60;;
16828;SDS011;8531;48.078;11.968;2023-06-10T08:00:27;4.00;;;3.60;;
16828;SDS011;8531;48.078;11.968;2023-06-10T08:02:53;3.60;;;3.30;;
16828;SDS011;8531;48.078;11.968;2023-06-10T08:05:18;5.18;;;3.95;;
16828;SDS011;8531;48.078;11.968;2023-06-10T08:07:45;6.07;;;3.80;;
16828;SDS011;8531;48.078;11.968;2023-06-10T08:10:11;5.10;;;4.22;;
16828;SDS011;8531;48.078;11.968;2023-06-10T08:12:36;4.03;;;3.72;;
16828;SDS011;8531;48.078;11.968;2023-06-10T08:15:02;4.70;;;3.80;;
16828;SDS011;8531;48.078;11.968;2023-06-10T08:17:29;4.13;;;3.72;;
16828;SDS011;8531;48.078;11.968;2023-06-10T08:19:55;4.70;;;3.42;;
16828;SDS011;8531;48.078;11.968;2023-06-10T08:22:21;3.53;;;3.22;;
16828;SDS011;8531;48.078;11.968;2023-06-10T08:24:47;5.10;;;3.60;;
16828;SDS011;8531;48.078;11.968;2023-06-10T08:27:12;4.05;;;3.75;;
16828;SDS011;8531;48.078;11.968;2023-06-10T08:29:38;5.85;;;3.50;;
16828;SDS011;8531;48.078;11.968;2023-06-10T08:32:05;4.53;;;4.13;;
16828;SDS011;8531;48.078;11.968;2023-06-10T08:34:34;4.25;;;3.85;;
16828;SDS011;8531;48.078;11.968;2023-06-10T08:37:01;3.95;;;3.58;;
16828;SDS011;8531;48.078;11.968;2023-06-10T08:39:27;5.03;;;3.42;;
16828;SDS011;8531;48.078;11.968;2023-06-10T08:44:27;3.25;;;2.95;;
16828;SDS011;8531;48.078;11.968;2023-06-10T08:46:55;3.97;;;3.30;;
16828;SDS011;8531;48.078;11.968;2023-06-10T08:49:28;5.15;;;2.90;;
16828;SDS011;8531;48.078;11.968;2023-06-10T08:51:59;3.42;;;3.13;;
16828;SDS011;8531;48.078;11.968;2023-06-10T08:54:29;3.38;;;2.75;;
16828;SDS011;8531;48.078;11.968;2023-06-10T08:56:58;4.30;;;2.50;;
16828;SDS011;8531;48.078;11.968;2023-06-10T08:59:28;2.88;;;2.67;;
16828;SDS011;8531;48.078;11.968;2023-06-10T09:01:54;6.40;;;2.60;;
16828;SDS011;8531;48.078;11.968;2023-06-10T09:04:20;3.05;;;2.78;;
16828;SDS011;8531;48.078;11.968;2023-06-10T09:06:48;4.35;;;2.20;;
16828;SDS011;8531;48.078;11.968;2023-06-10T09:09:15;4.35;;;2.22;;
16828;SDS011;8531;48.078;11.968;2023-06-10T09:11:41;5.05;;;4.65;;
16828;SDS011;8531;48.078;11.968;2023-06-10T09:14:08;2.50;;;2.30;;
16828;SDS011;8531;48.078;11.968;2023-06-10T09:16:34;2.83;;;2.63;;
16828;SDS011;8531;48.078;11.968;2023-06-10T09:19:01;3.88;;;2.42;;
16828;SDS011;8531;48.078;11.968;2023-06-10T09:21:32;2.67;;;2.40;;
16828;SDS011;8531;48.078;11.968;2023-06-10T09:23:59;3.10;;;2.80;;
16828;SDS011;8531;48.078;11.968;2023-06-10T09:26:28;3.08;;;2.65;;
16828;SDS011;8531;48.078;11.968;2023-06-10T09:29:03;3.22;;;2.88;;
16828;SDS011;8531;48.078;11.968;2023-06-10T09:31:30;3.38;;;2.50;;
16828;SDS011;8531;48.078;11.968;2023-06-10T09:34:11;3.40;;;3.10;;
16828;SDS011;8531;48.078;11.968;2023-06-10T09:36:38;2.80;;;2.60;;
16828;SDS011;8531;48.078;11.968;2023-06-10T09:39:05;2.60;;;2.40;;
16828;SDS011;8531;48.078;11.968;2023-06-10T09:41:41;2.72;;;2.42;;
16828;SDS011;8531;48.078;11.968;2023-06-10T09:44:14;2.42;;;2.22;;
16828;SDS011;8531;48.078;11.968;2023-06-10T09:46:47;1.65;;;1.55;;
16828;SDS011;8531;48.078;11.968;2023-06-10T09:49:14;2.15;;;1.95;;
16828;SDS011;8531;48.078;11.968;2023-06-10T09:51:51;1.85;;;1.75;;
16828;SDS011;8531;48.078;11.968;2023-06-10T09:54:18;1.70;;;1.60;;
16828;SDS011;8531;48.078;11.968;2023-06-10T09:56:46;1.65;;;1.48;;
16828;SDS011;8531;48.078;11.968;2023-06-10T09:59:13;3.17;;;2.00;;
16828;SDS011;8531;48.078;11.968;2023-06-10T10:01:38;2.35;;;1.48;;
16828;SDS011;8531;48.078;11.968;2023-06-10T10:04:04;2.03;;;1.67;;
16828;SDS011;8531;48.078;11.968;2023-06-10T10:06:30;2.58;;;1.90;;
16828;SDS011;8531;48.078;11.968;2023-06-10T10:08:57;2.05;;;1.88;;
16828;SDS011;8531;48.078;11.968;2023-06-10T10:11:23;3.15;;;2.40;;
16828;SDS011;8531;48.078;11.968;2023-06-10T10:13:51;3.20;;;2.13;;
16828;SDS011;8531;48.078;11.968;2023-06-10T10:16:20;3.38;;;2.80;;
16828;SDS011;8531;48.078;11.968;2023-06-10T10:18:55;2.67;;;2.47;;
16828;SDS011;8531;48.078;11.968;2023-06-10T10:21:25;2.67;;;2.47;;
16828;SDS011;8531;48.078;11.968;2023-06-10T10:26:28;2.60;;;2.28;;
16828;SDS011;8531;48.078;11.968;2023-06-10T10:29:07;7.40;;;2.40;;
16828;SDS011;8531;48.078;11.968;2023-06-10T10:31:39;2.35;;;2.13;;
16828;SDS011;8531;48.078;11.968;2023-06-10T10:34:15;2.63;;;2.40;;
16828;SDS011;8531;48.078;11.968;2023-06-10T10:36:44;2.08;;;1.90;;
16828;SDS011;8531;48.078;11.968;2023-06-10T10:39:11;2.60;;;2.40;;
16828;SDS011;8531;48.078;11.968;2023-06-10T10:41:37;2.63;;;2.25;;
16828;SDS011;8531;48.078;11.968;2023-06-10T10:44:05;2.30;;;2.10;;
16828;SDS011;8531;48.078;11.968;2023-06-10T10:46:42;2.15;;;1.80;;
16828;SDS011;8531;48.078;11.968;2023-06-10T10:49:09;2.85;;;2.65;;
16828;SDS011;8531;48.078;11.968;2023-06-10T10:51:37;2.30;;;2.20;;
16828;SDS011;8531;48.078;11.968;2023-06-10T10:54:18;2.40;;;2.20;;
16828;SDS011;8531;48.078;11.968;2023-06-10T10:57:34;3.00;;;2.42;;
16828;SDS011;8531;48.078;11.968;2023-06-10T10:59:58;2.47;;;2.28;;
16828;SDS011;8531;48.078;11.968;2023-06-10T11:02:38;3.55;;;2.13;;
16828;SDS011;8531;48.078;11.968;2023-06-10T11:05:18;2.03;;;1.92;;
16828;SDS011;8531;48.078;11.968;2023-06-10T11:08:14;2.42;;;2.22;;
16828;SDS011;8531;48.078;11.968;2023-06-10T11:10:58;3.17;;;2.38;;
16828;SDS011;8531;48.078;11.968;2023-06-10T11:13:25;3.38;;;2.30;;
16828;SDS011;8531;48.078;11.968;2023-06-10T11:15:52;2.90;;;2.38;;
16828;SDS011;8531;48.078;11.968;2023-06-10T11:21:18;2.22;;;2.03;;
16828;SDS011;8531;48.078;11.968;2023-06-10T11:23:44;1.92;;;1.83;;
16828;SDS011;8531;48.078;11.968;2023-06-10T11:26:10;3.20;;;2.20;;
16828;SDS011;8531;48.078;11.968;2023-06-10T11:34:03;3.30;;;2.00;;
16828;SDS011;8531;48.078;11.968;2023-06-10T11:36:31;1.60;;;1.50;;
16828;SDS011;8531;48.078;11.968;2023-06-10T11:39:08;1.52;;;1.42;;
16828;SDS011;8531;48.078;11.968;2023-06-10T11:41:35;1.55;;;1.45;;
16828;SDS011;8531;48.078;11.968;2023-06-10T11:44:03;2.90;;;1.50;;
16828;SDS011;8531;48.078;11.968;2023-06-10T11:46:39;2.13;;;1.92;;
16828;SDS011;8531;48.078;11.968;2023-06-10T11:49:07;2.10;;;1.90;;
16828;SDS011;8531;48.078;11.968;2023-06-10T11:51:39;2.00;;;1.80;;
16828;SDS011;8531;48.078;11.968;2023-06-10T11:54:10;3.00;;;2.70;;
16828;SDS011;8531;48.078;11.968;2023-06-10T11:56:35;1.77;;;1.67;;
16828;SDS011;8531;48.078;11.968;2023-06-10T11:59:02;3.95;;;2.30;;
16828;SDS011;8531;48.078;11.968;2023-06-10T12:01:31;3.05;;;2.13;;
16828;SDS011;8531;48.078;11.968;2023-06-10T12:03:59;3.35;;;2.75;;
16828;SDS011;8531;48.078;11.968;2023-06-10T12:06:26;3.10;;;2.90;;
16828;SDS011;8531;48.078;11.968;2023-06-10T12:08:53;3.25;;;2.78;;
16828;SDS011;8531;48.078;11.968;2023-06-10T12:11:19;3.50;;;3.17;;
16828;SDS011;8531;48.078;11.968;2023-06-10T12:13:46;3.65;;;3.10;;
16828;SDS011;8531;48.078;11.968;2023-06-10T12:16:15;4.07;;;3.17;;
16828;SDS011;8531;48.078;11.968;2023-06-10T12:18:43;3.88;;;3.10;;
16828;SDS011;8531;48.078;11.968;2023-06-10T12:21:17;3.38;;;3.08;;
16828;SDS011;8531;48.078;11.968;2023-06-10T12:24:00;3.67;;;3.38;;
16828;SDS011;8531;48.078;11.968;2023-06-10T12:26:44;3.35;;;2.92;;
16828;SDS011;8531;48.078;11.968;2023-06-10T12:32:19;5.28;;;3.67;;
16828;SDS011;8531;48.078;11.968;2023-06-10T12:34:40;4.43;;;4.03;;
16828;SDS011;8531;48.078;11.968;2023-06-10T12:37:06;2.85;;;2.63;;
16828;SDS011;8531;48.078;11.968;2023-06-10T12:39:38;4.03;;;3.05;;
16828;SDS011;8531;48.078;11.968;2023-06-10T12:42:05;3.20;;;2.95;;
16828;SDS011;8531;48.078;11.968;2023-06-10T12:44:34;3.30;;;2.58;;
16828;SDS011;8531;48.078;11.968;2023-06-10T12:47:07;3.78;;;2.85;;
16828;SDS011;8531;48.078;11.968;2023-06-10T12:49:34;2.80;;;2.60;;
16828;SDS011;8531;48.078;11.968;2023-06-10T12:52:01;2.92;;;2.72;;
16828;SDS011;8531;48.078;11.968;2023-06-10T12:54:27;3.05;;;2.83;;
16828;SDS011;8531;48.078;11.968;2023-06-10T12:56:53;3.63;;;2.60;;
16828;SDS011;8531;48.078;11.968;2023-06-10T12:59:19;2.60;;;2.40;;
16828;SDS011;8531;48.078;11.968;2023-06-10T13:01:49;4.25;;;2.60;;
16828;SDS011;8531;48.078;11.968;2023-06-10T13:04:16;4.30;;;2.83;;
16828;SDS011;8531;48.078;11.968;2023-06-10T13:06:43;4.30;;;2.70;;
16828;SDS011;8531;48.078;11.968;2023-06-10T13:09:09;4.57;;;2.70;;
16828;SDS011;8531;48.078;11.968;2023-06-10T13:11:35;3.08;;;2.67;;
16828;SDS011;8531;48.078;11.968;2023-06-10T13:14:02;3.40;;;3.10;;
16828;SDS011;8531;48.078;11.968;2023-06-10T13:16:29;2.90;;;2.70;;
16828;SDS011;8531;48.078;11.968;2023-06-10T13:18:56;5.38;;;2.72;;
16828;SDS011;8531;48.078;11.968;2023-06-10T13:21:22;3.10;;;2.75;;
16828;SDS011;8531;48.078;11.968;2023-06-10T13:23:48;3.47;;;2.90;;
16828;SDS011;8531;48.078;11.968;2023-06-10T13:26:14;2.95;;;2.67;;
16828;SDS011;8531;48.078;11.968;2023-06-10T13:28:42;3.58;;;2.70;;
16828;SDS011;8531;48.078;11.968;2023-06-10T13:31:08;3.03;;;2.60;;
16828;SDS011;8531;48.078;11.968;2023-06-10T13:33:34;4.18;;;2.95;;
16828;SDS011;8531;48.078;11.968;2023-06-10T13:35:59;3.05;;;2.75;;
16828;SDS011;8531;48.078;11.968;2023-06-10T13:38:25;4.20;;;2.45;;
16828;SDS011;8531;48.078;11.968;2023-06-10T13:40:51;5.20;;;3.30;;
16828;SDS011;8531;48.078;11.968;2023-06-10T13:43:16;3.17;;;2.60;;
16828;SDS011;8531;48.078;11.968;2023-06-10T13:45:42;5.03;;;2.60;;
16828;SDS011;8531;48.078;11.968;2023-06-10T13:48:08;2.60;;;2.40;;
16828;SDS011;8531;48.078;11.968;2023-06-10T13:50:34;2.78;;;2.58;;
16828;SDS011;8531;48.078;11.968;2023-06-10T13:52:59;4.65;;;2.47;;
16828;SDS011;8531;48.078;11.968;2023-06-10T13:55:25;2.45;;;2.13;;
16828;SDS011;8531;48.078;11.968;2023-06-10T13:57:51;2.45;;;2.25;;
16828;SDS011;8531;48.078;11.968;2023-06-10T14:00:16;3.03;;;2.38;;
16828;SDS011;8531;48.078;11.968;2023-06-10T14:02:42;2.33;;;2.13;;
16828;SDS011;8531;48.078;11.968;2023-06-10T14:05:08;5.95;;;2.10;;
16828;SDS011;8531;48.078;11.968;2023-06-10T14:07:34;2.60;;;2.40;;
16828;SDS011;8531;48.078;11.968;2023-06-10T14:10:00;2.40;;;2.20;;
16828;SDS011;8531;48.078;11.968;2023-06-10T14:12:25;2.83;;;2.63;;
16828;SDS011;8531;48.078;11.968;2023-06-10T14:14:51;2.15;;;1.98;;
16828;SDS011;8531;48.078;11.968;2023-06-10T14:17:17;2.22;;;2.03;;
16828;SDS011;8531;48.078;11.968;2023-06-10T14:19:42;2.53;;;2.33;;
16828;SDS011;8531;48.078;11.968;2023-06-10T14:22:08;2.42;;;2.22;;
16828;SDS011;8531;48.078;11.968;2023-06-10T14:24:34;2.97;;;2.15;;
16828;SDS011;8531;48.078;11.968;2023-06-10T14:27:01;3.65;;;2.50;;
16828;SDS011;8531;48.078;11.968;2023-06-10T14:29:27;3.92;;;2.60;;
16828;SDS011;8531;48.078;11.968;2023-06-10T14:31:54;1.70;;;1.60;;
16828;SDS011;8531;48.078;11.968;2023-06-10T14:34:20;2.90;;;1.98;;
16828;SDS011;8531;48.078;11.968;2023-06-10T14:36:48;1.98;;;1.88;;
16828;SDS011;8531;48.078;11.968;2023-06-10T14:39:14;1.92;;;1.73;;
16828;SDS011;8531;48.078;11.968;2023-06-10T14:41:39;2.15;;;2.00;;
16828;SDS011;8531;48.078;11.968;2023-06-10T14:44:05;1.92;;;1.83;;
16828;SDS011;8531;48.078;11.968;2023-06-10T14:46:30;2.20;;;2.00;;
16828;SDS011;8531;48.078;11.968;2023-06-10T14:48:56;8.55;;;7.38;;
16828;SDS011;8531;48.078;11.968;2023-06-10T14:51:24;2.50;;;2.30;;
16828;SDS011;8531;48.078;11.968;2023-06-10T14:53:49;2.17;;;2.08;;
16828;SDS011;8531;48.078;11.968;2023-06-10T14:56:15;3.17;;;2.38;;
16828;SDS011;8531;48.078;11.968;2023-06-10T14:58:41;3.30;;;2.83;;
16828;SDS011;8531;48.078;11.968;2023-06-10T15:01:07;2.80;;;2.60;;
16828;SDS011;8531;48.078;11.968;2023-06-10T15:03:32;3.28;;;2.50;;
16828;SDS011;8531;48.078;11.968;2023-06-10T15:05:58;3.00;;;2.80;;
16828;SDS011;8531;48.078;11.968;2023-06-10T15:08:26;2.90;;;2.65;;
16828;SDS011;8531;48.078;11.968;2023-06-10T15:10:55;2.90;;;2.70;;
16828;SDS011;8531;48.078;11.968;2023-06-10T15:13:22;3.30;;;3.00;;